createdAt,value
2018-07-17T00:01:35.341Z,7.50
2018-07-17T00:02:35.340Z,8.10
2018-07-17T00:04:29.776Z,7.70
2018-07-17T00:05:29.721Z,8.10
2018-07-17T00:07:24.093Z,7.60
2018-07-17T00:08:24.092Z,8.00
2018-07-17T00:10:18.587Z,7.90
2018-07-17T00:11:18.479Z,8.10
2018-07-17T00:13:12.859Z,7.60
2018-07-17T00:14:12.857Z,8.60
2018-07-17T00:16:07.362Z,7.90
2018-07-17T00:17:07.244Z,7.50
2018-07-17T00:19:01.635Z,8.60
2018-07-17T00:20:01.634Z,8.10
2018-07-17T00:21:56.174Z,8.30
2018-07-17T00:22:56.018Z,8.40
2018-07-17T00:24:50.389Z,7.90
2018-07-17T00:25:50.388Z,7.80
2018-07-17T00:27:44.865Z,8.00
2018-07-17T00:28:44.759Z,8.20
2018-07-17T00:30:39.183Z,8.00
2018-07-17T00:31:39.151Z,8.80
2018-07-17T00:33:33.727Z,8.00
2018-07-17T00:34:33.514Z,7.90
2018-07-17T00:36:27.897Z,8.60
2018-07-17T00:37:27.894Z,8.10
2018-07-17T00:39:22.427Z,7.90
2018-07-17T00:40:22.278Z,8.50
2018-07-17T00:42:16.657Z,7.30
2018-07-17T00:43:16.690Z,7.60
2018-07-17T00:45:11.137Z,7.60
2018-07-17T00:46:11.032Z,8.00
2018-07-17T00:48:05.981Z,8.60
2018-07-17T00:49:05.410Z,8.10
2018-07-17T00:50:59.861Z,8.00
2018-07-17T00:51:59.790Z,8.40
2018-07-17T00:53:54.180Z,8.40
2018-07-17T00:54:55.280Z,8.20
2018-07-17T00:56:48.765Z,8.50
2018-07-17T00:57:48.566Z,7.90
2018-07-17T00:59:42.947Z,7.90
2018-07-17T01:00:42.943Z,7.40
2018-07-17T01:02:37.375Z,8.10
2018-07-17T01:03:37.336Z,7.90
2018-07-17T01:05:31.702Z,7.60
2018-07-17T01:06:31.702Z,7.90
2018-07-17T01:08:26.296Z,8.30
2018-07-17T01:09:26.434Z,8.30
2018-07-17T01:11:20.517Z,8.90
2018-07-17T01:12:20.467Z,8.70
2018-07-17T01:14:14.995Z,8.10
2018-07-17T01:15:14.853Z,7.50
2018-07-17T01:17:09.222Z,7.70
2018-07-17T01:18:09.221Z,7.30
2018-07-17T01:20:03.948Z,8.00
2018-07-17T01:21:03.591Z,8.30
2018-07-17T01:22:57.973Z,6.80
2018-07-17T01:23:57.968Z,8.20
2018-07-17T01:25:52.502Z,8.10
2018-07-17T01:26:52.365Z,8.30
2018-07-17T01:28:46.802Z,7.80
2018-07-17T01:29:46.789Z,8.50
2018-07-17T01:31:41.226Z,8.50
2018-07-17T01:32:41.112Z,7.90
2018-07-17T01:34:35.495Z,8.90
2018-07-17T01:35:35.505Z,8.30
2018-07-17T01:37:29.930Z,8.30
2018-07-17T01:38:29.878Z,8.50
2018-07-17T01:40:24.253Z,8.70
2018-07-17T01:41:24.247Z,8.40
2018-07-17T01:43:18.879Z,8.00
2018-07-17T01:44:18.625Z,8.10
2018-07-17T01:46:12.996Z,8.30
2018-07-17T01:47:12.994Z,8.30
2018-07-17T01:49:07.529Z,8.60
2018-07-17T01:50:07.376Z,8.30
2018-07-17T01:52:01.763Z,8.40
2018-07-17T01:53:01.758Z,8.80
2018-07-17T01:54:56.279Z,8.60
2018-07-17T01:55:56.136Z,8.50
2018-07-17T01:57:50.517Z,8.50
2018-07-17T01:58:50.516Z,8.30
2018-07-17T02:00:45.061Z,8.90
2018-07-17T02:01:44.899Z,8.70
2018-07-17T02:03:39.279Z,8.40
2018-07-17T02:04:39.284Z,7.80
2018-07-17T02:06:33.783Z,7.60
2018-07-17T02:07:33.658Z,8.40
2018-07-17T02:09:28.028Z,8.40
2018-07-17T02:10:28.027Z,8.60
2018-07-17T02:12:22.516Z,9.20
2018-07-17T02:13:22.405Z,9.00
2018-07-17T02:15:16.797Z,8.60
2018-07-17T02:16:16.795Z,8.60
2018-07-17T02:18:11.290Z,9.00
2018-07-17T02:19:11.175Z,8.70
2018-07-17T02:21:05.552Z,8.60
2018-07-17T02:22:05.547Z,8.00
2018-07-17T02:24:00.081Z,8.50
2018-07-17T02:24:59.926Z,8.50
2018-07-17T02:26:54.310Z,8.80
2018-07-17T02:27:54.305Z,8.10
2018-07-17T02:29:48.742Z,8.00
2018-07-17T02:30:48.687Z,7.90
2018-07-17T02:32:43.067Z,8.90
2018-07-17T02:33:43.065Z,8.50
2018-07-17T02:35:42.590Z,8.30
2018-07-17T02:36:42.449Z,9.10
2018-07-17T02:38:37.391Z,9.20
2018-07-17T02:39:36.824Z,9.10
2018-07-17T02:41:31.265Z,9.30
2018-07-17T02:42:31.205Z,9.40
2018-07-17T02:44:25.589Z,8.70
2018-07-17T02:45:25.586Z,9.70
2018-07-17T02:47:20.102Z,9.50
2018-07-17T02:48:19.964Z,9.30
2018-07-17T02:50:14.348Z,9.80
2018-07-17T02:51:14.341Z,10.00
2018-07-17T02:53:08.856Z,9.00
2018-07-17T02:54:08.712Z,8.50
2018-07-17T02:56:03.659Z,9.60
2018-07-17T02:57:03.099Z,10.10
2018-07-17T02:58:57.638Z,10.30
2018-07-17T02:59:57.466Z,9.50
2018-07-17T03:01:51.846Z,9.20
2018-07-17T03:02:51.846Z,9.20
2018-07-17T03:04:46.378Z,9.10
2018-07-17T03:05:46.264Z,9.40
2018-07-17T03:07:40.623Z,8.80
2018-07-17T03:08:40.608Z,8.80
2018-07-17T03:10:35.051Z,8.90
2018-07-17T03:11:34.983Z,9.30
2018-07-17T03:13:29.401Z,9.40
2018-07-17T03:14:29.401Z,9.80
2018-07-17T03:16:24.567Z,10.00
2018-07-17T03:17:23.783Z,9.60
2018-07-17T03:19:18.184Z,9.60
2018-07-17T03:20:18.151Z,9.60
2018-07-17T03:22:12.588Z,9.40
2018-07-17T03:23:12.530Z,8.80
2018-07-17T03:25:06.910Z,9.70
2018-07-17T03:26:06.907Z,10.00
2018-07-17T03:28:01.355Z,9.70
2018-07-17T03:29:01.287Z,9.70
2018-07-17T03:30:55.670Z,9.30
2018-07-17T03:31:55.670Z,9.90
2018-07-17T03:33:50.159Z,10.00
2018-07-17T03:34:50.046Z,9.90
2018-07-17T03:36:44.430Z,9.80
2018-07-17T03:37:44.426Z,9.30
2018-07-17T03:39:43.350Z,10.40
2018-07-17T03:40:43.234Z,10.70
2018-07-17T03:42:37.613Z,9.10
2018-07-17T03:43:37.605Z,9.00
2018-07-17T03:45:32.054Z,9.70
2018-07-17T03:46:31.983Z,9.60
2018-07-17T03:48:26.364Z,9.80
2018-07-17T03:49:26.365Z,9.60
2018-07-17T03:51:20.799Z,9.70
2018-07-17T03:52:20.740Z,10.30
2018-07-17T03:54:15.122Z,9.40
2018-07-17T03:55:15.120Z,9.90
2018-07-17T03:57:09.631Z,9.80
2018-07-17T03:58:09.486Z,10.10
2018-07-17T04:00:03.874Z,9.40
2018-07-17T04:01:03.872Z,9.80
2018-07-17T04:02:58.498Z,9.80
2018-07-17T04:03:58.252Z,9.50
2018-07-17T04:05:52.633Z,10.30
2018-07-17T04:06:52.628Z,9.60
2018-07-17T04:08:47.170Z,10.20
2018-07-17T04:09:47.084Z,9.50
2018-07-17T04:11:41.406Z,10.70
2018-07-17T04:12:41.405Z,9.80
2018-07-17T04:14:35.955Z,10.30
2018-07-17T04:15:35.886Z,10.20
2018-07-17T04:17:30.177Z,9.80
2018-07-17T04:18:30.174Z,9.40
2018-07-17T04:20:24.861Z,9.80
2018-07-17T04:21:24.556Z,9.90
2018-07-17T04:23:18.943Z,10.10
2018-07-17T04:24:18.938Z,10.40
2018-07-17T04:26:13.363Z,10.10
2018-07-17T04:27:13.310Z,10.40
2018-07-17T04:29:07.708Z,10.20
2018-07-17T04:30:07.699Z,10.20
2018-07-17T04:32:02.238Z,9.40
2018-07-17T04:33:02.088Z,9.60
2018-07-17T04:34:56.462Z,10.30
2018-07-17T04:35:56.458Z,10.30
2018-07-17T04:37:50.905Z,10.50
2018-07-17T04:38:50.840Z,10.60
2018-07-17T04:40:45.218Z,9.80
2018-07-17T04:41:45.282Z,10.10
2018-07-17T04:43:39.798Z,9.90
2018-07-17T04:44:39.597Z,10.00
2018-07-17T04:46:33.977Z,10.10
2018-07-17T04:47:33.983Z,10.50
2018-07-17T04:49:28.416Z,10.50
2018-07-17T04:50:28.354Z,11.80
2018-07-17T04:52:22.736Z,13.10
2018-07-17T04:53:22.734Z,12.60
2018-07-17T04:55:17.251Z,13.10
2018-07-17T04:56:17.114Z,12.90
2018-07-17T04:58:11.492Z,13.50
2018-07-17T04:59:11.492Z,13.80
2018-07-17T05:01:05.934Z,13.70
2018-07-17T05:02:05.873Z,12.70
2018-07-17T05:04:00.246Z,13.60
2018-07-17T05:05:00.241Z,13.20
2018-07-17T05:06:54.742Z,12.80
2018-07-17T05:07:54.609Z,13.60
2018-07-17T05:09:49.892Z,13.60
2018-07-17T05:10:49.901Z,13.30
2018-07-17T05:12:44.433Z,13.30
2018-07-17T05:13:44.272Z,13.50
2018-07-17T05:15:38.726Z,13.20
2018-07-17T05:16:38.653Z,13.50
2018-07-17T05:18:33.096Z,14.00
2018-07-17T05:19:33.036Z,13.40
2018-07-17T05:21:27.413Z,12.90
2018-07-17T05:22:27.415Z,12.90
2018-07-17T05:24:21.848Z,13.30
2018-07-17T05:25:21.822Z,13.30
2018-07-17T05:27:16.172Z,13.20
2018-07-17T05:28:16.170Z,12.00
2018-07-17T05:30:10.692Z,12.20
2018-07-17T05:31:10.554Z,11.90
2018-07-17T05:33:04.946Z,13.60
2018-07-17T05:34:04.940Z,13.50
2018-07-17T05:35:59.398Z,13.00
2018-07-17T05:36:59.339Z,12.90
2018-07-17T05:38:53.726Z,12.40
2018-07-17T05:39:53.730Z,11.80
2018-07-17T05:41:48.151Z,11.70
2018-07-17T05:42:48.101Z,11.60
2018-07-17T05:44:42.485Z,12.50
2018-07-17T05:45:42.496Z,11.90
2018-07-17T05:47:37.026Z,12.10
2018-07-17T05:48:36.878Z,12.50
2018-07-17T05:50:31.277Z,12.20
2018-07-17T05:51:31.260Z,12.50
2018-07-17T05:53:25.776Z,11.80
2018-07-17T05:54:25.650Z,11.80
2018-07-17T05:56:20.041Z,12.90
2018-07-17T05:57:20.031Z,13.10
2018-07-17T05:59:14.472Z,13.40
2018-07-17T06:00:14.416Z,16.00
2018-07-17T06:02:08.802Z,12.70
2018-07-17T06:03:08.804Z,12.90
2018-07-17T06:05:02.470Z,12.00
2018-07-17T06:06:02.210Z,11.80
2018-07-17T06:07:56.596Z,11.90
2018-07-17T06:08:56.603Z,11.90
2018-07-17T06:10:51.050Z,11.10
2018-07-17T06:11:50.986Z,11.50
2018-07-17T06:13:45.390Z,10.80
2018-07-17T06:14:45.374Z,10.80
2018-07-17T06:16:39.816Z,10.50
2018-07-17T06:17:39.763Z,12.00
2018-07-17T06:19:34.148Z,11.40
2018-07-17T06:20:34.149Z,12.20
2018-07-17T06:22:28.619Z,12.20
2018-07-17T06:23:28.560Z,11.60
2018-07-17T06:25:23.011Z,12.90
2018-07-17T06:26:23.022Z,12.70
2018-07-17T06:28:17.614Z,15.50
2018-07-17T06:29:17.385Z,14.50
2018-07-17T06:31:11.778Z,11.70
2018-07-17T06:32:11.779Z,11.30
2018-07-17T06:34:06.900Z,11.30
2018-07-17T06:35:06.159Z,12.00
2018-07-17T06:37:00.546Z,11.00
2018-07-17T06:38:00.544Z,10.80
2018-07-17T06:39:55.095Z,10.50
2018-07-17T06:40:54.928Z,10.30
2018-07-17T06:42:49.381Z,9.60
2018-07-17T06:43:49.315Z,10.00
2018-07-17T06:45:42.977Z,10.70
2018-07-17T06:46:42.963Z,10.90
2018-07-17T06:48:37.242Z,10.90
2018-07-17T06:49:37.242Z,18.40
2018-07-17T06:51:31.701Z,10.40
2018-07-17T06:52:31.639Z,9.90
2018-07-17T06:54:26.736Z,10.60
2018-07-17T06:55:26.154Z,10.00
2018-07-17T06:57:20.702Z,9.10
2018-07-17T06:58:20.464Z,9.40
2018-07-17T07:00:14.855Z,10.00
2018-07-17T07:01:14.855Z,9.30
2018-07-17T07:03:09.352Z,9.60
2018-07-17T07:04:09.236Z,10.50
2018-07-17T07:06:03.641Z,14.10
2018-07-17T07:07:03.643Z,46.50
2018-07-17T07:08:58.207Z,18.70
2018-07-17T07:09:58.020Z,12.10
2018-07-17T07:11:52.413Z,9.50
2018-07-17T07:12:52.413Z,12.10
2018-07-17T07:14:47.015Z,13.50
2018-07-17T07:15:46.795Z,13.30
2018-07-17T07:17:41.181Z,9.30
2018-07-17T07:18:41.183Z,9.30
2018-07-17T07:20:35.758Z,9.90
2018-07-17T07:21:35.570Z,9.00
2018-07-17T07:23:29.954Z,9.10
2018-07-17T07:24:29.957Z,9.00
2018-07-17T07:26:29.277Z,9.90
2018-07-17T07:27:29.139Z,9.50
2018-07-17T07:29:23.570Z,8.00
2018-07-17T07:30:23.527Z,8.50
2018-07-17T07:32:17.984Z,10.10
2018-07-17T07:33:17.918Z,8.90
2018-07-17T07:35:12.307Z,8.30
2018-07-17T07:36:12.304Z,9.20
2018-07-17T07:38:06.759Z,10.70
2018-07-17T07:39:06.692Z,13.10
2018-07-17T07:41:01.094Z,7.50
2018-07-17T07:42:01.083Z,58.10
2018-07-17T07:43:55.534Z,10.60
2018-07-17T07:44:55.471Z,27.10
2018-07-17T07:46:49.924Z,22.00
2018-07-17T07:47:49.872Z,14.00
2018-07-17T07:49:44.367Z,8.80
2018-07-17T07:50:44.260Z,7.00
2018-07-17T07:52:38.637Z,65.40
2018-07-17T07:53:38.632Z,29.80
2018-07-17T07:55:33.166Z,29.00
2018-07-17T07:56:33.011Z,22.20
2018-07-17T07:58:27.963Z,20.70
2018-07-17T07:59:27.400Z,22.50
2018-07-17T08:01:21.905Z,12.20
2018-07-17T08:02:21.773Z,14.70
2018-07-17T08:04:16.164Z,6.80
2018-07-17T08:05:16.163Z,18.60
2018-07-17T08:07:10.704Z,20.90
2018-07-17T08:08:10.548Z,15.80
2018-07-17T08:10:04.939Z,8.80
2018-07-17T08:11:04.937Z,7.70
2018-07-17T08:12:59.379Z,7.30
2018-07-17T08:13:59.324Z,7.40
2018-07-17T08:15:53.724Z,26.90
2018-07-17T08:16:53.722Z,13.80
2018-07-17T08:18:48.294Z,6.50
2018-07-17T08:19:48.105Z,7.00
2018-07-17T08:21:42.505Z,5.50
2018-07-17T08:22:42.521Z,14.70
2018-07-17T08:24:38.181Z,6.60
2018-07-17T08:25:38.438Z,7.40
2018-07-17T08:27:31.636Z,6.10
2018-07-17T08:28:31.988Z,6.30
2018-07-17T08:30:26.255Z,4.70
2018-07-17T08:31:26.058Z,4.40
2018-07-17T08:33:20.431Z,5.00
2018-07-17T08:34:20.430Z,10.40
2018-07-17T08:36:15.165Z,4.40
2018-07-17T08:37:15.110Z,6.30
2018-07-17T08:39:09.515Z,4.90
2018-07-17T08:40:09.513Z,4.70
2018-07-17T08:42:03.964Z,4.40
2018-07-17T08:43:03.904Z,6.20
2018-07-17T08:44:58.285Z,4.60
2018-07-17T08:45:58.295Z,5.40
2018-07-17T08:47:52.734Z,3.40
2018-07-17T08:48:52.677Z,4.20
2018-07-17T08:50:47.648Z,3.40
2018-07-17T08:51:47.078Z,3.40
2018-07-17T08:53:41.595Z,3.10
2018-07-17T08:54:41.583Z,3.00
2018-07-17T08:56:35.863Z,2.60
2018-07-17T08:57:35.878Z,2.80
2018-07-17T08:59:30.337Z,4.80
2018-07-17T09:00:30.311Z,4.60
2018-07-17T09:02:24.703Z,3.50
2018-07-17T09:03:24.672Z,3.00
2018-07-17T09:05:19.139Z,2.70
2018-07-17T09:06:19.077Z,3.10
2018-07-17T09:08:13.488Z,3.30
2018-07-17T09:09:13.489Z,3.10
2018-07-17T09:11:07.863Z,3.00
2018-07-17T09:12:07.787Z,3.30
2018-07-17T09:14:02.193Z,2.70
2018-07-17T09:15:02.232Z,2.80
2018-07-17T09:16:56.965Z,2.60
2018-07-17T09:17:56.625Z,2.90
2018-07-17T09:19:50.125Z,2.60
2018-07-17T09:20:50.084Z,2.40
2018-07-17T09:22:44.846Z,4.00
2018-07-17T09:23:44.769Z,6.00
2018-07-17T09:25:39.143Z,4.50
2018-07-17T09:26:39.330Z,2.80
2018-07-17T09:28:33.702Z,3.30
2018-07-17T09:29:33.594Z,3.20
2018-07-17T09:31:27.039Z,2.70
2018-07-17T09:32:27.037Z,3.40
2018-07-17T09:34:26.188Z,2.80
2018-07-17T09:35:25.924Z,2.80
2018-07-17T09:37:20.423Z,2.50
2018-07-17T09:38:20.333Z,2.60
2018-07-17T09:40:20.296Z,2.60
2018-07-17T09:41:18.118Z,3.50
2018-07-17T09:42:18.064Z,2.90
2018-07-17T09:43:18.084Z,2.90
2018-07-17T09:44:18.141Z,2.80
2018-07-17T09:45:18.116Z,3.50
2018-07-17T09:46:18.159Z,4.80
2018-07-17T09:47:18.201Z,2.90
2018-07-17T09:48:18.142Z,2.60
2018-07-17T09:49:18.147Z,17.70
2018-07-17T09:50:18.212Z,4.60
2018-07-17T09:51:18.210Z,2.50
2018-07-17T09:52:18.194Z,2.90
2018-07-17T09:53:18.217Z,3.10
2018-07-17T09:54:18.240Z,2.80
2018-07-17T09:55:18.257Z,3.00
2018-07-17T09:56:18.275Z,3.00
2018-07-17T09:57:18.259Z,3.10
2018-07-17T09:58:18.264Z,3.10
2018-07-17T09:59:18.319Z,3.40
2018-07-17T10:00:18.358Z,4.80
2018-07-17T10:01:18.918Z,4.00
2018-07-17T10:02:18.299Z,3.00
2018-07-17T10:03:18.361Z,3.50
2018-07-17T10:04:21.315Z,5.80
2018-07-17T10:05:18.403Z,3.00
2018-07-17T10:06:18.466Z,2.90
2018-07-17T10:07:18.407Z,3.10
2018-07-17T10:08:18.389Z,3.10
2018-07-17T10:09:18.445Z,3.00
2018-07-17T10:10:18.497Z,4.20
2018-07-17T10:11:18.510Z,3.60
2018-07-17T10:12:18.493Z,2.80
2018-07-17T10:13:18.506Z,2.70
2018-07-17T10:14:18.462Z,3.10
2018-07-17T10:15:18.507Z,4.60
2018-07-17T10:16:18.584Z,2.50
2018-07-17T10:17:18.548Z,3.80
2018-07-17T10:18:18.626Z,2.80
2018-07-17T10:19:18.590Z,2.80
2018-07-17T10:20:18.605Z,5.20
2018-07-17T10:21:18.547Z,3.60
2018-07-17T10:22:18.608Z,4.00
2018-07-17T10:23:18.658Z,3.60
2018-07-17T10:24:18.591Z,3.30
2018-07-17T10:25:18.693Z,3.10
2018-07-17T10:26:18.704Z,2.70
2018-07-17T10:27:18.607Z,3.40
2018-07-17T10:28:21.494Z,3.50
2018-07-17T10:29:18.752Z,3.60
2018-07-17T10:30:18.677Z,3.70
2018-07-17T10:31:18.767Z,3.00
2018-07-17T10:32:19.219Z,2.80
2018-07-17T10:33:20.417Z,2.80
2018-07-17T10:34:18.817Z,2.80
2018-07-17T10:35:18.719Z,2.80
2018-07-17T10:36:18.806Z,3.60
2018-07-17T10:37:19.160Z,4.00
2018-07-17T10:38:18.859Z,4.60
2018-07-17T10:39:18.830Z,3.10
2018-07-17T10:40:18.842Z,2.20
2018-07-17T10:41:18.812Z,2.30
2018-07-17T10:42:18.952Z,3.10
2018-07-17T10:43:18.881Z,3.40
2018-07-17T10:44:18.916Z,3.30
2018-07-17T10:45:18.988Z,7.00
2018-07-17T10:46:18.903Z,5.20
2018-07-17T10:47:18.960Z,7.30
2018-07-17T10:48:18.942Z,6.50
2018-07-17T10:49:18.960Z,4.50
2018-07-17T10:50:18.979Z,2.90
2018-07-17T10:51:19.014Z,3.00
2018-07-17T10:52:19.457Z,8.60
2018-07-17T10:53:19.064Z,5.10
2018-07-17T10:54:19.059Z,3.60
2018-07-17T10:55:19.107Z,2.90
2018-07-17T10:56:19.084Z,2.60
2018-07-17T10:57:19.084Z,3.00
2018-07-17T10:58:19.084Z,3.10
2018-07-17T10:59:19.632Z,3.10
2018-07-17T11:00:19.233Z,2.70
2018-07-17T11:01:19.188Z,2.70
2018-07-17T11:02:19.199Z,4.40
2018-07-17T11:03:19.759Z,3.30
2018-07-17T11:04:19.185Z,3.60
2018-07-17T11:05:19.274Z,3.20
2018-07-17T11:06:19.232Z,6.00
2018-07-17T11:07:19.232Z,4.00
2018-07-17T11:08:19.329Z,3.30
2018-07-17T11:09:19.411Z,3.00
2018-07-17T11:10:19.309Z,4.10
2018-07-17T11:11:19.283Z,3.00
2018-07-17T11:12:19.348Z,3.40
2018-07-17T11:13:19.325Z,2.80
2018-07-17T11:14:19.373Z,3.50
2018-07-17T11:15:19.334Z,3.60
2018-07-17T11:16:19.478Z,2.80
2018-07-17T11:17:19.369Z,2.80
2018-07-17T11:18:19.379Z,2.80
2018-07-17T11:19:19.394Z,3.00
2018-07-17T11:20:19.438Z,8.40
2018-07-17T11:21:19.418Z,3.90
2018-07-17T11:22:19.436Z,4.70
2018-07-17T11:23:19.443Z,4.50
2018-07-17T11:24:19.457Z,4.00
2018-07-17T11:25:19.471Z,3.30
2018-07-17T11:26:19.481Z,2.80
2018-07-17T11:27:19.493Z,10.30
2018-07-17T11:28:19.516Z,4.80
2018-07-17T11:29:19.523Z,5.80
2018-07-17T11:30:19.533Z,5.30
2018-07-17T11:31:19.549Z,3.00
2018-07-17T11:32:19.570Z,3.70
2018-07-17T11:33:19.577Z,2.60
2018-07-17T11:34:20.103Z,6.70
2018-07-17T11:35:19.610Z,14.70
2018-07-17T11:36:19.636Z,5.50
2018-07-17T11:37:19.646Z,7.30
2018-07-17T11:38:19.658Z,3.70
2018-07-17T11:39:19.677Z,6.00
2018-07-17T11:40:19.689Z,4.20
2018-07-17T11:41:19.707Z,4.80
2018-07-17T11:42:19.722Z,2.70
2018-07-17T11:43:19.743Z,2.80
2018-07-17T11:44:19.757Z,3.00
2018-07-17T11:45:19.775Z,3.40
2018-07-17T11:46:19.792Z,2.90
2018-07-17T11:47:19.813Z,2.40
2018-07-17T11:48:19.825Z,2.70
2018-07-17T11:49:19.852Z,3.00
2018-07-17T11:50:19.860Z,2.30
2018-07-17T11:51:19.907Z,2.70
2018-07-17T11:52:19.893Z,3.00
2018-07-17T11:53:19.917Z,3.40
2018-07-17T11:54:19.930Z,4.10
2018-07-17T11:55:19.944Z,4.10
2018-07-17T11:56:19.962Z,4.90
2018-07-17T11:57:19.982Z,4.00
2018-07-17T11:58:19.997Z,4.90
2018-07-17T11:59:20.116Z,3.00
2018-07-17T12:00:20.038Z,2.90
2018-07-17T12:01:20.052Z,2.80
2018-07-17T12:02:20.071Z,2.80
2018-07-17T12:03:20.087Z,3.00
2018-07-17T12:04:20.107Z,2.50
2018-07-17T12:05:20.506Z,2.80
2018-07-17T12:06:20.141Z,2.90
2018-07-17T12:07:20.159Z,2.40
2018-07-17T12:08:20.206Z,2.50
2018-07-17T12:09:20.194Z,4.80
2018-07-17T12:10:20.210Z,4.00
2018-07-17T12:11:20.224Z,8.70
2018-07-17T12:12:20.251Z,4.40
2018-07-17T12:13:20.258Z,3.70
2018-07-17T12:14:20.275Z,6.90
2018-07-17T12:15:20.294Z,2.80
2018-07-17T12:16:20.305Z,3.00
2018-07-17T12:17:20.653Z,2.50
2018-07-17T12:18:20.337Z,2.60
2018-07-17T12:19:20.351Z,3.10
2018-07-17T12:20:20.400Z,2.50
2018-07-17T12:21:20.385Z,3.10
2018-07-17T12:22:20.396Z,2.60
2018-07-17T12:23:20.411Z,3.10
2018-07-17T12:24:20.427Z,3.10
2018-07-17T12:25:20.440Z,2.90
2018-07-17T12:26:20.460Z,3.90
2018-07-17T12:27:20.469Z,5.20
2018-07-17T12:28:20.484Z,2.80
2018-07-17T12:29:20.703Z,7.50
2018-07-17T12:30:20.574Z,2.80
2018-07-17T12:31:20.524Z,3.10
2018-07-17T12:32:20.541Z,3.40
2018-07-17T12:33:20.554Z,3.70
2018-07-17T12:34:20.565Z,3.50
2018-07-17T12:35:20.577Z,2.70
2018-07-17T12:36:20.936Z,2.80
2018-07-17T12:37:20.605Z,5.30
2018-07-17T12:38:20.627Z,5.90
2018-07-17T12:39:20.630Z,10.30
2018-07-17T12:40:20.649Z,2.80
2018-07-17T12:41:20.662Z,2.60
2018-07-17T12:42:20.675Z,2.90
2018-07-17T12:43:20.688Z,3.30
2018-07-17T12:44:20.760Z,3.00
2018-07-17T12:45:20.913Z,4.40
2018-07-17T12:46:20.734Z,3.70
2018-07-17T12:47:20.750Z,16.70
2018-07-17T12:48:20.759Z,10.60
2018-07-17T12:49:20.779Z,4.70
2018-07-17T12:50:20.793Z,3.80
2018-07-17T12:51:20.802Z,4.30
2018-07-17T12:52:20.817Z,3.70
2018-07-17T12:53:20.834Z,3.60
2018-07-17T12:54:20.844Z,3.40
2018-07-17T12:55:20.855Z,3.40
2018-07-17T12:56:20.932Z,3.20
2018-07-17T12:57:20.881Z,3.40
2018-07-17T12:58:20.893Z,3.30
2018-07-17T12:59:20.909Z,7.00
2018-07-17T13:00:20.936Z,4.10
2018-07-17T13:01:20.930Z,3.60
2018-07-17T13:02:20.938Z,3.40
2018-07-17T13:03:20.951Z,3.30
2018-07-17T13:04:20.963Z,3.00
2018-07-17T13:05:21.217Z,3.40
2018-07-17T13:06:21.069Z,3.20
2018-07-17T13:07:21.353Z,3.60
2018-07-17T13:08:21.013Z,3.20
2018-07-17T13:09:21.028Z,3.50
2018-07-17T13:10:21.026Z,4.50
2018-07-17T13:11:21.038Z,5.40
2018-07-17T13:12:21.114Z,5.30
2018-07-17T13:13:21.060Z,4.70
2018-07-17T13:14:21.072Z,5.30
2018-07-17T13:15:21.076Z,4.10
2018-07-17T13:16:21.091Z,4.60
2018-07-17T13:17:21.106Z,5.30
2018-07-17T13:18:21.103Z,4.80
2018-07-17T13:19:21.113Z,5.00
2018-07-17T13:20:21.129Z,3.70
2018-07-17T13:21:21.130Z,4.20
2018-07-17T13:22:21.159Z,3.60
2018-07-17T13:23:21.151Z,3.90
2018-07-17T13:24:21.160Z,4.40
2018-07-17T13:25:21.168Z,5.20
2018-07-17T13:26:21.175Z,6.10
2018-07-17T13:27:21.190Z,5.60
2018-07-17T13:28:21.194Z,6.10
2018-07-17T13:29:21.225Z,6.00
2018-07-17T13:30:21.232Z,13.70
2018-07-17T13:31:21.221Z,10.10
2018-07-17T13:32:21.251Z,7.00
2018-07-17T13:33:21.241Z,6.60
2018-07-17T13:34:21.244Z,5.70
2018-07-17T13:35:21.837Z,6.10
2018-07-17T13:36:21.261Z,6.20
2018-07-17T13:37:21.320Z,6.30
2018-07-17T13:38:21.779Z,5.60
2018-07-17T13:39:21.400Z,5.70
2018-07-17T13:40:21.300Z,5.90
2018-07-17T13:41:21.307Z,7.00
2018-07-17T13:42:21.319Z,5.90
2018-07-17T13:43:21.329Z,5.30
2018-07-17T13:44:21.572Z,6.10
2018-07-17T13:45:21.489Z,6.10
2018-07-17T13:46:21.348Z,7.40
2018-07-17T13:47:21.374Z,6.80
2018-07-17T13:48:21.374Z,6.80
2018-07-17T13:49:21.381Z,5.70
2018-07-17T13:50:22.360Z,6.30
2018-07-17T13:51:21.393Z,18.40
2018-07-17T13:52:21.405Z,6.20
2018-07-17T13:53:21.418Z,7.30
2018-07-17T13:54:21.482Z,5.90
2018-07-17T13:55:21.436Z,6.00
2018-07-17T13:56:21.535Z,5.50
2018-07-17T13:57:21.451Z,5.40
2018-07-17T13:58:21.452Z,4.50
2018-07-17T13:59:21.514Z,3.90
2018-07-17T14:00:21.489Z,5.20
2018-07-17T14:01:21.480Z,5.10
2018-07-17T14:02:21.557Z,4.70
2018-07-17T14:03:21.497Z,5.50
2018-07-17T14:04:21.504Z,5.30
2018-07-17T14:05:21.513Z,4.80
2018-07-17T14:06:21.542Z,4.20
2018-07-17T14:07:21.579Z,3.60
2018-07-17T14:08:21.834Z,3.90
2018-07-17T14:09:22.191Z,3.80
2018-07-17T14:10:21.557Z,3.30
2018-07-17T14:11:21.765Z,3.60
2018-07-17T14:12:21.802Z,3.20
2018-07-17T14:13:21.642Z,3.10
2018-07-17T14:14:21.765Z,3.40
2018-07-17T14:15:21.671Z,3.30
2018-07-17T14:16:21.701Z,3.10
2018-07-17T14:17:21.650Z,2.90
2018-07-17T14:18:21.648Z,3.00
2018-07-17T14:19:21.639Z,3.10
2018-07-17T14:20:21.710Z,2.60
2018-07-17T14:21:21.693Z,3.40
2018-07-17T14:22:21.672Z,3.60
2018-07-17T14:23:21.677Z,3.20
2018-07-17T14:24:21.679Z,4.00
2018-07-17T14:25:21.685Z,3.80
2018-07-17T14:26:21.691Z,3.10
2018-07-17T14:27:21.701Z,2.90
2018-07-17T14:28:21.712Z,3.00
2018-07-17T14:29:21.733Z,3.40
2018-07-17T14:30:21.823Z,3.20
2018-07-17T14:31:21.767Z,2.60
2018-07-17T14:32:21.742Z,3.20
2018-07-17T14:33:21.761Z,2.90
2018-07-17T14:34:21.765Z,3.30
2018-07-17T14:35:21.786Z,2.90
2018-07-17T14:36:21.799Z,3.30
2018-07-17T14:37:21.793Z,3.10
2018-07-17T14:38:21.834Z,3.50
2018-07-17T14:39:21.807Z,5.30
2018-07-17T14:40:22.658Z,4.10
2018-07-17T14:41:21.828Z,2.60
2018-07-17T14:42:21.827Z,4.60
2018-07-17T14:43:21.837Z,4.00
2018-07-17T14:44:22.627Z,3.60
2018-07-17T14:45:21.854Z,3.40
2018-07-17T14:46:21.856Z,3.90
2018-07-17T14:47:21.908Z,3.50
2018-07-17T14:48:21.969Z,2.80
2018-07-17T14:49:21.897Z,2.50
2018-07-17T14:50:21.926Z,3.30
2018-07-17T14:51:21.901Z,3.30
2018-07-17T14:52:21.909Z,2.70
2018-07-17T14:53:21.954Z,2.90
2018-07-17T14:54:22.045Z,2.80
2018-07-17T14:55:21.949Z,3.00
2018-07-17T14:56:21.964Z,3.30
2018-07-17T14:57:21.955Z,3.30
2018-07-17T14:58:21.965Z,3.20
2018-07-17T14:59:21.996Z,2.90
2018-07-17T15:00:21.985Z,3.10
2018-07-17T15:01:22.148Z,3.90
2018-07-17T15:02:22.004Z,4.50
2018-07-17T15:03:22.009Z,3.30
2018-07-17T15:04:22.018Z,3.60
2018-07-17T15:05:22.031Z,2.80
2018-07-17T15:06:22.036Z,3.00
2018-07-17T15:07:22.046Z,3.00
2018-07-17T15:08:22.057Z,2.80
2018-07-17T15:09:22.071Z,2.70
2018-07-17T15:10:22.111Z,3.10
2018-07-17T15:11:23.066Z,2.70
2018-07-17T15:12:22.279Z,2.60
2018-07-17T15:13:22.109Z,2.60
2018-07-17T15:14:22.116Z,3.00
2018-07-17T15:15:22.136Z,2.80
2018-07-17T15:16:22.140Z,2.60
2018-07-17T15:17:22.161Z,2.20
2018-07-17T15:18:22.180Z,2.20
2018-07-17T15:19:22.180Z,3.10
2018-07-17T15:20:22.262Z,3.90
2018-07-17T15:21:22.256Z,4.00
2018-07-17T15:22:22.265Z,4.50
2018-07-17T15:23:22.214Z,3.40
2018-07-17T15:24:22.321Z,3.90
2018-07-17T15:25:22.235Z,4.80
2018-07-17T15:26:22.265Z,3.10
2018-07-17T15:27:22.259Z,9.50
2018-07-17T15:28:22.268Z,2.70
2018-07-17T15:29:22.279Z,6.10
2018-07-17T15:30:22.285Z,2.80
2018-07-17T15:31:22.306Z,2.70
2018-07-17T15:32:22.317Z,2.70
2018-07-17T15:33:22.323Z,2.10
2018-07-17T15:34:22.343Z,1.80
2018-07-17T15:35:22.453Z,2.20
2018-07-17T15:36:22.359Z,1.90
2018-07-17T15:37:22.365Z,1.90
2018-07-17T15:38:22.409Z,2.10
2018-07-17T15:39:22.382Z,1.80
2018-07-17T15:40:22.394Z,2.00
2018-07-17T15:41:22.442Z,2.00
2018-07-17T15:42:22.415Z,2.00
2018-07-17T15:43:22.424Z,1.80
2018-07-17T15:44:22.447Z,1.90
2018-07-17T15:45:22.467Z,1.90
2018-07-17T15:46:22.457Z,2.00
2018-07-17T15:47:22.469Z,2.10
2018-07-17T15:48:22.487Z,1.70
2018-07-17T15:49:22.493Z,2.00
2018-07-17T15:50:22.614Z,2.30
2018-07-17T15:51:22.536Z,2.20
2018-07-17T15:52:22.533Z,2.20
2018-07-17T15:53:22.625Z,2.10
2018-07-17T15:54:22.577Z,2.00
2018-07-17T15:55:22.556Z,2.00
2018-07-17T15:56:22.565Z,2.20
2018-07-17T15:57:22.577Z,1.80
2018-07-17T15:58:22.592Z,1.90
2018-07-17T15:59:22.597Z,2.10
2018-07-17T16:00:22.605Z,1.80
2018-07-17T16:01:22.617Z,1.90
2018-07-17T16:02:22.631Z,2.30
2018-07-17T16:03:22.690Z,2.00
2018-07-17T16:04:22.656Z,1.90
2018-07-17T16:05:22.664Z,1.70
2018-07-17T16:06:22.680Z,2.00
2018-07-17T16:07:22.776Z,2.00
2018-07-17T16:08:22.690Z,1.90
2018-07-17T16:09:22.702Z,1.70
2018-07-17T16:10:22.711Z,1.80
2018-07-17T16:11:22.728Z,2.00
2018-07-17T16:12:22.783Z,2.40
2018-07-17T16:13:22.777Z,2.00
2018-07-17T16:14:23.183Z,2.00
2018-07-17T16:15:22.805Z,2.40